createdAt,value
2023-04-11T00:01:38.838Z,12.60
2023-04-11T00:05:44.371Z,12.50
2023-04-11T00:09:49.961Z,12.40
2023-04-11T00:13:58.831Z,12.40
2023-04-11T00:18:06.507Z,12.30
2023-04-11T00:22:13.841Z,12.20
2023-04-11T00:26:19.451Z,12.20
2023-04-11T00:30:25.002Z,12.10
2023-04-11T00:34:30.822Z,12.10
2023-04-11T00:38:36.462Z,12.00
2023-04-11T00:42:42.042Z,12.00
2023-04-11T00:46:47.726Z,11.90
2023-04-11T00:50:53.269Z,11.70
2023-04-11T00:54:58.942Z,11.70
2023-04-11T00:59:04.609Z,11.70
2023-04-11T01:03:10.285Z,11.60
2023-04-11T01:07:17.926Z,11.60
2023-04-11T01:11:24.321Z,11.50
2023-04-11T01:15:30.310Z,11.40
2023-04-11T01:19:35.923Z,11.40
2023-04-11T01:23:41.714Z,11.30
2023-04-11T01:27:48.308Z,11.30
2023-04-11T01:31:54.306Z,11.30
2023-04-11T01:35:59.997Z,11.30
2023-04-11T01:40:07.229Z,11.20
2023-04-11T01:44:13.715Z,11.20
2023-04-11T01:48:21.097Z,11.10
2023-04-11T01:52:26.674Z,11.10
2023-04-11T01:56:32.255Z,11.00
2023-04-11T02:00:37.823Z,11.00
2023-04-11T02:04:43.409Z,11.00
2023-04-11T02:08:49.072Z,10.90
2023-04-11T02:12:54.821Z,10.90
2023-04-11T02:17:00.337Z,10.90
2023-04-11T02:21:06.357Z,10.90
2023-04-11T02:25:11.829Z,10.90
2023-04-11T02:29:17.366Z,10.80
2023-04-11T02:33:23.739Z,10.80
2023-04-11T02:37:29.364Z,10.80
2023-04-11T02:41:34.864Z,10.80
2023-04-11T02:45:41.192Z,10.80
2023-04-11T02:49:46.649Z,10.70
2023-04-11T02:53:52.622Z,10.70
2023-04-11T02:57:58.570Z,10.60
2023-04-11T03:02:04.358Z,10.60
2023-04-11T03:06:10.268Z,10.60
2023-04-11T03:10:15.864Z,10.60
2023-04-11T03:14:21.451Z,10.50
2023-04-11T03:18:27.113Z,10.50
2023-04-11T03:22:32.790Z,10.50
2023-04-11T03:26:38.319Z,10.50
2023-04-11T03:30:43.872Z,10.50
2023-04-11T03:34:51.052Z,10.50
2023-04-11T03:38:56.759Z,10.40
2023-04-11T03:43:04.408Z,10.40
2023-04-11T03:47:10.692Z,10.40
2023-04-11T03:51:16.192Z,10.40
2023-04-11T03:55:21.870Z,10.40
2023-04-11T03:59:27.389Z,10.30
2023-04-11T04:03:33.151Z,10.30
2023-04-11T04:07:38.858Z,10.30
2023-04-11T04:11:44.384Z,10.20
2023-04-11T04:15:52.860Z,10.20
2023-04-11T04:19:58.338Z,10.20
2023-04-11T04:24:05.212Z,10.20
2023-04-11T04:28:10.744Z,10.10
2023-04-11T04:32:24.062Z,10.10
2023-04-11T04:36:31.039Z,10.10
2023-04-11T04:40:38.157Z,10.10
2023-04-11T04:44:43.971Z,10.00
2023-04-11T04:48:49.800Z,10.00
2023-04-11T04:52:55.287Z,10.00
2023-04-11T04:57:01.406Z,9.90
2023-04-11T05:01:09.286Z,9.80
2023-04-11T05:05:15.833Z,9.80
2023-04-11T05:09:21.746Z,9.70
2023-04-11T05:13:27.339Z,9.70
2023-04-11T05:17:32.838Z,9.60
2023-04-11T05:21:38.874Z,9.50
2023-04-11T05:25:44.376Z,9.50
2023-04-11T05:29:50.087Z,9.40
2023-04-11T05:33:56.873Z,9.40
2023-04-11T05:38:02.497Z,9.30
2023-04-11T05:42:08.162Z,9.30
2023-04-11T05:46:13.912Z,9.30
2023-04-11T05:50:19.414Z,9.20
2023-04-11T05:54:36.811Z,9.20
2023-04-11T05:58:44.014Z,9.20
2023-04-11T06:02:50.938Z,9.30
2023-04-11T06:06:56.770Z,9.30
2023-04-11T06:11:02.330Z,9.40
2023-04-11T06:15:09.369Z,9.40
2023-04-11T06:19:14.898Z,9.40
2023-04-11T06:23:20.397Z,9.40
2023-04-11T06:27:26.640Z,9.30
2023-04-11T06:31:33.276Z,9.30
2023-04-11T06:35:38.894Z,9.40
2023-04-11T06:39:44.678Z,9.50
2023-04-11T06:43:50.290Z,9.50
2023-04-11T06:47:56.011Z,9.50
2023-04-11T06:52:01.855Z,9.50
2023-04-11T06:56:08.349Z,9.50
2023-04-11T07:00:14.481Z,9.50
2023-04-11T07:04:20.184Z,9.50
2023-04-11T07:08:25.899Z,9.40
2023-04-11T07:12:31.520Z,9.40
2023-04-11T07:16:37.076Z,9.50
2023-04-11T07:20:42.918Z,9.50
2023-04-11T07:24:52.743Z,9.60
2023-04-11T07:28:59.483Z,9.70
2023-04-11T07:33:05.219Z,9.70
2023-04-11T07:37:11.128Z,9.70
2023-04-11T07:41:16.760Z,9.80
2023-04-11T07:45:22.539Z,9.80
2023-04-11T07:49:28.182Z,9.80
2023-04-11T07:53:33.987Z,9.80
2023-04-11T07:57:39.498Z,9.70
2023-04-11T08:01:45.054Z,9.60
2023-04-11T08:05:50.748Z,9.60
2023-04-11T08:09:56.301Z,9.60
2023-04-11T08:14:01.847Z,9.60
2023-04-11T08:18:07.385Z,9.60
2023-04-11T08:22:12.946Z,9.60
2023-04-11T08:26:18.529Z,9.60
2023-04-11T08:30:24.261Z,9.60
2023-04-11T08:34:33.226Z,9.70
2023-04-11T08:38:40.741Z,9.70
2023-04-11T08:42:46.720Z,9.70
2023-04-11T08:46:52.424Z,9.60
2023-04-11T08:50:58.494Z,9.70
2023-04-11T08:55:04.456Z,9.70
2023-04-11T08:59:10.061Z,9.70
2023-04-11T09:03:17.339Z,9.80
2023-04-11T09:07:22.921Z,10.00
2023-04-11T09:11:28.499Z,10.20
2023-04-11T09:15:34.143Z,10.40
2023-04-11T09:19:46.876Z,10.50
2023-04-11T09:23:55.264Z,10.50
2023-04-11T09:28:10.340Z,10.60
2023-04-11T09:32:36.590Z,10.70
2023-04-11T09:36:44.170Z,10.70
2023-04-11T09:40:49.890Z,10.70
2023-04-11T09:44:55.367Z,10.60
2023-04-11T09:49:04.113Z,10.50
2023-04-11T09:53:11.372Z,10.50
2023-04-11T09:57:19.828Z,10.40
2023-04-11T10:01:25.629Z,10.40
2023-04-11T10:05:31.984Z,10.40
2023-04-11T10:09:41.373Z,10.30
2023-04-11T10:13:48.242Z,10.30
2023-04-11T10:18:12.499Z,10.40
2023-04-11T10:22:43.966Z,10.40
2023-04-11T10:26:55.314Z,10.30
2023-04-11T10:31:14.074Z,10.30
2023-04-11T10:35:22.805Z,10.30
2023-04-11T10:39:50.857Z,10.40
2023-04-11T10:44:18.202Z,10.50
2023-04-11T10:48:23.906Z,10.60
2023-04-11T10:52:37.795Z,10.70
2023-04-11T10:56:44.090Z,10.70
2023-04-11T11:00:49.667Z,10.80
2023-04-11T11:04:55.408Z,10.90
2023-04-11T11:09:21.009Z,10.90
2023-04-11T11:14:04.706Z,10.80
2023-04-11T11:18:10.594Z,10.80
2023-04-11T11:22:25.977Z,10.70
2023-04-11T11:26:42.543Z,10.50
2023-04-11T11:30:56.918Z,10.50
2023-04-11T11:35:14.752Z,10.50
2023-04-11T11:39:21.992Z,10.60
2023-04-11T11:43:29.122Z,10.70
2023-04-11T11:47:43.241Z,10.70
2023-04-11T11:51:49.587Z,10.80
2023-04-11T11:55:56.866Z,10.80
2023-04-11T12:00:09.382Z,10.80
2023-04-11T12:04:15.644Z,10.70
2023-04-11T12:08:22.320Z,10.50
2023-04-11T12:12:39.683Z,10.30
2023-04-11T12:16:45.213Z,10.30
2023-04-11T12:20:51.642Z,10.10
2023-04-11T12:25:08.652Z,9.80
2023-04-11T12:29:14.285Z,9.60
2023-04-11T12:33:19.834Z,9.60
2023-04-11T12:37:25.635Z,9.60
2023-04-11T12:41:32.589Z,9.50
2023-04-11T12:45:38.670Z,9.30
2023-04-11T12:49:44.476Z,9.30
2023-04-11T12:53:52.791Z,9.20
2023-04-11T12:57:58.344Z,9.30
2023-04-11T13:02:03.948Z,9.20
2023-04-11T13:06:09.846Z,9.20
2023-04-11T13:10:16.323Z,9.10
2023-04-11T13:14:21.968Z,9.10
2023-04-11T13:18:27.482Z,8.90
2023-04-11T13:22:33.899Z,8.90
2023-04-11T13:26:40.146Z,8.90
2023-04-11T13:30:46.373Z,8.90
2023-04-11T13:34:52.212Z,9.00
2023-04-11T13:38:58.645Z,9.00
2023-04-11T13:43:04.659Z,9.10
2023-04-11T13:47:10.450Z,9.10
2023-04-11T13:51:16.169Z,9.20
2023-04-11T13:55:23.483Z,9.40
2023-04-11T13:59:29.036Z,9.70
2023-04-11T14:03:34.633Z,9.70
2023-04-11T14:07:41.492Z,9.80
2023-04-11T14:11:47.080Z,10.00
2023-04-11T14:16:07.363Z,10.10
2023-04-11T14:20:15.416Z,10.10
2023-04-11T14:24:22.368Z,10.00
2023-04-11T14:28:28.039Z,10.00
2023-04-11T14:32:33.619Z,10.10
2023-04-11T14:36:39.933Z,10.10
2023-04-11T14:40:45.575Z,10.20
2023-04-11T14:44:52.782Z,10.20
2023-04-11T14:48:58.299Z,10.10
2023-04-11T14:53:03.970Z,10.20
2023-04-11T14:57:09.730Z,10.20
2023-04-11T15:01:15.530Z,10.20
2023-04-11T15:05:23.191Z,10.20
2023-04-11T15:09:28.912Z,10.10
2023-04-11T15:13:34.586Z,10.10
2023-04-11T15:17:43.695Z,10.10
2023-04-11T15:21:49.272Z,10.30
2023-04-11T15:26:00.455Z,10.70
2023-04-11T15:30:07.439Z,11.00
2023-04-11T15:34:14.095Z,11.20
2023-04-11T15:38:20.026Z,11.00
2023-04-11T15:42:25.710Z,10.90
2023-04-11T15:46:31.704Z,10.80
2023-04-11T15:50:37.248Z,10.60
2023-04-11T15:54:43.570Z,10.70
2023-04-11T15:58:49.280Z,10.50
2023-04-11T16:02:55.102Z,10.60
2023-04-11T16:07:00.782Z,11.10
2023-04-11T16:11:07.017Z,11.70
2023-04-11T16:15:12.563Z,12.00
2023-04-11T16:19:18.247Z,12.20
2023-04-11T16:23:24.614Z,12.10
2023-04-11T16:27:30.075Z,11.80
2023-04-11T16:31:36.551Z,11.80
2023-04-11T16:35:42.370Z,12.10
2023-04-11T16:39:48.166Z,12.00
2023-04-11T16:43:53.757Z,12.00
2023-04-11T16:47:59.489Z,12.10
2023-04-11T16:52:05.049Z,12.10
2023-04-11T16:56:10.597Z,12.10
2023-04-11T17:00:20.008Z,12.00
2023-04-11T17:04:25.998Z,11.90
2023-04-11T17:08:31.707Z,11.90
2023-04-11T17:12:37.233Z,11.90
2023-04-11T17:16:43.640Z,11.90
2023-04-11T17:20:51.098Z,11.80
2023-04-11T17:24:56.726Z,11.80
2023-04-11T17:29:02.421Z,11.50
2023-04-11T17:33:08.621Z,11.40
2023-04-11T17:37:14.244Z,11.30
2023-04-11T17:41:19.749Z,11.10
2023-04-11T17:45:25.415Z,11.00
2023-04-11T17:49:30.968Z,10.80
2023-04-11T17:53:36.553Z,10.70
2023-04-11T17:57:44.481Z,10.50
2023-04-11T18:01:53.356Z,10.40
2023-04-11T18:05:59.765Z,10.30
2023-04-11T18:10:06.733Z,10.30
2023-04-11T18:14:12.327Z,10.20
2023-04-11T18:18:17.916Z,10.10
2023-04-11T18:22:23.462Z,10.00
2023-04-11T18:26:29.158Z,9.90
2023-04-11T18:30:34.701Z,9.80
2023-04-11T18:34:40.257Z,9.70
2023-04-11T18:38:47.494Z,9.60
2023-04-11T18:42:55.082Z,9.60
2023-04-11T18:51:07.838Z,9.50
2023-04-11T18:55:15.183Z,9.50
2023-04-11T18:59:24.866Z,9.40
2023-04-11T19:03:32.251Z,9.40
2023-04-11T19:07:38.014Z,9.30
2023-04-11T19:11:43.550Z,9.20
2023-04-11T19:15:49.047Z,9.20
2023-04-11T19:19:54.526Z,9.00
2023-04-11T19:24:00.031Z,9.00
2023-04-11T19:28:05.947Z,8.90
2023-04-11T19:32:12.634Z,8.90
2023-04-11T19:36:20.194Z,8.80
2023-04-11T19:40:25.750Z,8.70
2023-04-11T19:44:31.281Z,8.60
2023-04-11T19:48:37.217Z,8.60
2023-04-11T19:52:43.416Z,8.50
2023-04-11T19:56:52.528Z,8.50
2023-04-11T20:00:59.327Z,8.40
2023-04-11T20:05:06.288Z,8.30
2023-04-11T20:09:12.091Z,8.20
2023-04-11T20:13:17.782Z,8.20
2023-04-11T20:17:23.375Z,8.00
2023-04-11T20:21:29.209Z,8.00
2023-04-11T20:25:35.612Z,7.90
2023-04-11T20:29:41.370Z,7.80
2023-04-11T20:33:46.964Z,7.70
2023-04-11T20:37:54.097Z,7.70
2023-04-11T20:42:02.369Z,7.60
2023-04-11T20:46:13.519Z,7.50
2023-04-11T20:50:19.758Z,7.40
2023-04-11T20:54:26.378Z,7.30
2023-04-11T20:58:31.888Z,7.30
2023-04-11T21:02:37.551Z,7.20
2023-04-11T21:06:44.891Z,7.10
2023-04-11T21:10:50.390Z,7.00
2023-04-11T21:14:59.145Z,6.90
2023-04-11T21:19:04.673Z,6.90
2023-04-11T21:23:10.262Z,6.70
2023-04-11T21:27:15.992Z,6.70
2023-04-11T21:31:21.496Z,6.70
2023-04-11T21:35:27.188Z,6.60
2023-04-11T21:39:32.743Z,6.70
2023-04-11T21:43:38.201Z,6.60
2023-04-11T21:47:43.849Z,6.60
2023-04-11T21:51:49.373Z,6.50
2023-04-11T21:55:54.979Z,6.50
2023-04-11T22:00:00.649Z,6.30
2023-04-11T22:04:10.367Z,6.30
2023-04-11T22:08:20.106Z,6.20
2023-04-11T22:12:27.134Z,6.10
2023-04-11T22:16:33.657Z,6.00
2023-04-11T22:20:43.580Z,5.90
2023-04-11T22:24:50.802Z,5.90
2023-04-11T22:29:01.411Z,5.80
2023-04-11T22:33:08.960Z,5.70
2023-04-11T22:37:14.571Z,5.70
2023-04-11T22:41:20.090Z,5.60
2023-04-11T22:45:26.094Z,5.50
2023-04-11T22:49:32.353Z,5.50
2023-04-11T22:53:42.093Z,5.30
2023-04-11T22:57:48.008Z,5.30
2023-04-11T23:01:54.003Z,5.20
2023-04-11T23:05:59.474Z,5.20
2023-04-11T23:10:09.066Z,5.20
2023-04-11T23:14:15.530Z,5.20
2023-04-11T23:18:21.465Z,5.10
2023-04-11T23:22:27.475Z,5.00
2023-04-11T23:26:33.248Z,4.90
2023-04-11T23:30:39.175Z,4.80
2023-04-11T23:34:46.158Z,4.70
2023-04-11T23:38:51.954Z,4.70
2023-04-11T23:42:58.813Z,4.70
2023-04-11T23:47:04.362Z,4.50
2023-04-11T23:51:09.851Z,4.50
2023-04-11T23:55:15.592Z,4.50
2023-04-11T23:59:21.407Z,4.40
